createdAt,value
2023-04-13T00:01:32.875Z,1.60
2023-04-13T00:04:23.318Z,2.60
2023-04-13T00:07:14.854Z,1.73
2023-04-13T00:10:03.548Z,1.60
2023-04-13T00:12:52.097Z,1.47
2023-04-13T00:15:42.961Z,2.07
2023-04-13T00:18:31.912Z,2.13
2023-04-13T00:21:21.779Z,2.10
2023-04-13T00:24:10.245Z,4.13
2023-04-13T00:26:58.737Z,2.43
2023-04-13T00:29:47.226Z,2.60
2023-04-13T00:32:35.940Z,1.60
2023-04-13T00:35:25.241Z,5.40
2023-04-13T00:38:15.239Z,2.80
2023-04-13T00:41:04.357Z,3.07
2023-04-13T00:43:53.598Z,2.63
2023-04-13T00:46:42.549Z,2.90
2023-04-13T00:49:31.550Z,3.00
2023-04-13T00:52:21.277Z,5.07
2023-04-13T00:55:11.301Z,3.10
2023-04-13T00:58:01.463Z,1.70
2023-04-13T01:00:49.986Z,1.63
2023-04-13T01:03:39.858Z,1.67
2023-04-13T01:06:33.859Z,2.13
2023-04-13T01:09:27.772Z,1.80
2023-04-13T01:12:21.053Z,5.10
2023-04-13T01:15:12.717Z,3.87
2023-04-13T01:18:05.308Z,1.40
2023-04-13T01:20:54.840Z,2.30
2023-04-13T01:23:52.300Z,1.60
2023-04-13T01:26:51.122Z,3.10
2023-04-13T01:29:41.901Z,1.50
2023-04-13T01:32:30.836Z,3.20
2023-04-13T01:35:20.202Z,3.10
2023-04-13T01:38:08.808Z,3.00
2023-04-13T01:40:57.310Z,3.37
2023-04-13T01:43:46.224Z,4.53
2023-04-13T01:46:37.763Z,3.30
2023-04-13T01:49:26.478Z,2.47
2023-04-13T01:52:15.212Z,2.90
2023-04-13T01:55:04.607Z,2.83
2023-04-13T01:57:55.986Z,1.60
2023-04-13T02:00:44.579Z,2.63
2023-04-13T02:03:36.070Z,4.07
2023-04-13T02:06:24.804Z,2.57
2023-04-13T02:09:13.331Z,2.90
2023-04-13T02:12:02.043Z,2.90
2023-04-13T02:14:50.522Z,2.27
2023-04-13T02:17:39.292Z,2.17
2023-04-13T02:20:30.559Z,1.80
2023-04-13T02:23:19.852Z,3.60
2023-04-13T02:26:08.748Z,5.13
2023-04-13T02:28:57.863Z,2.70
2023-04-13T02:31:46.568Z,3.00
2023-04-13T02:34:35.511Z,4.80
2023-04-13T02:37:25.749Z,3.73
2023-04-13T02:40:14.372Z,3.03
2023-04-13T02:43:04.327Z,2.00
2023-04-13T02:45:53.198Z,3.53
2023-04-13T02:48:42.055Z,1.60
2023-04-13T02:51:30.705Z,1.70
2023-04-13T02:54:20.712Z,3.40
2023-04-13T02:57:10.537Z,5.90
2023-04-13T02:59:59.444Z,7.97
2023-04-13T03:02:48.167Z,4.47
2023-04-13T03:05:37.356Z,3.40
2023-04-13T03:08:25.872Z,2.63
2023-04-13T03:11:16.744Z,3.90
2023-04-13T03:14:05.227Z,2.93
2023-04-13T03:16:54.666Z,1.67
2023-04-13T03:19:46.564Z,3.00
2023-04-13T03:22:36.317Z,1.50
2023-04-13T03:25:24.834Z,2.77
2023-04-13T03:28:14.850Z,3.50
2023-04-13T03:31:03.800Z,2.03
2023-04-13T03:33:52.406Z,3.80
2023-04-13T03:36:40.836Z,2.13
2023-04-13T03:39:30.103Z,2.60
2023-04-13T03:42:18.639Z,3.10
2023-04-13T03:45:09.986Z,4.80
2023-04-13T03:47:58.547Z,3.07
2023-04-13T03:50:47.094Z,7.70
2023-04-13T03:53:37.133Z,5.30
2023-04-13T03:56:25.677Z,4.30
2023-04-13T03:59:14.136Z,3.20
2023-04-13T04:02:04.088Z,4.43
2023-04-13T04:04:52.951Z,2.30
2023-04-13T04:07:41.503Z,3.00
2023-04-13T04:10:30.060Z,3.00
2023-04-13T04:13:18.528Z,4.00
2023-04-13T04:16:08.852Z,6.77
2023-04-13T04:18:58.727Z,5.23
2023-04-13T04:21:47.694Z,3.23
2023-04-13T04:24:36.301Z,5.43
2023-04-13T04:27:26.274Z,8.07
2023-04-13T04:30:14.873Z,4.00
2023-04-13T04:33:03.581Z,5.60
2023-04-13T04:35:54.097Z,4.40
2023-04-13T04:38:42.587Z,6.30
2023-04-13T04:41:31.539Z,4.17
2023-04-13T04:44:20.243Z,2.13
2023-04-13T04:47:09.278Z,6.53
2023-04-13T04:49:58.573Z,2.50
2023-04-13T04:52:48.438Z,4.70
2023-04-13T04:55:36.873Z,7.93
2023-04-13T04:58:25.348Z,4.50
2023-04-13T05:01:13.828Z,4.10
2023-04-13T05:04:02.478Z,4.87
2023-04-13T05:06:50.943Z,6.40
2023-04-13T05:09:41.055Z,4.63
2023-04-13T05:12:29.526Z,6.07
2023-04-13T05:15:18.111Z,8.30
2023-04-13T05:18:06.863Z,4.40
2023-04-13T05:20:55.363Z,4.20
2023-04-13T05:23:44.562Z,4.80
2023-04-13T05:26:35.277Z,8.00
2023-04-13T05:29:23.918Z,3.27
2023-04-13T05:32:12.339Z,5.20
2023-04-13T05:35:00.809Z,8.87
2023-04-13T05:37:49.283Z,8.57
2023-04-13T05:40:38.166Z,8.07
2023-04-13T05:43:28.056Z,7.30
2023-04-13T05:46:16.980Z,3.60
2023-04-13T05:49:05.494Z,4.30
2023-04-13T05:51:54.693Z,10.43
2023-04-13T05:54:43.157Z,4.57
2023-04-13T05:57:31.649Z,4.60
2023-04-13T06:00:22.330Z,8.27
2023-04-13T06:03:11.007Z,6.03
2023-04-13T06:06:00.354Z,5.10
2023-04-13T06:08:49.483Z,4.40
2023-04-13T06:11:37.952Z,4.60
2023-04-13T06:14:26.509Z,8.03
2023-04-13T06:17:16.282Z,4.90
2023-04-13T06:20:07.171Z,5.93
2023-04-13T06:22:55.665Z,5.53
2023-04-13T06:25:44.877Z,6.43
2023-04-13T06:28:33.573Z,3.87
2023-04-13T06:31:23.344Z,5.97
2023-04-13T06:34:13.765Z,5.30
2023-04-13T06:37:03.037Z,2.23
2023-04-13T06:39:51.599Z,6.07
2023-04-13T06:42:41.078Z,8.80
2023-04-13T06:45:30.946Z,5.53
2023-04-13T06:48:19.458Z,5.80
2023-04-13T06:51:09.528Z,3.60
2023-04-13T06:53:58.035Z,4.47
2023-04-13T06:56:46.617Z,9.03
2023-04-13T06:59:35.092Z,4.83
2023-04-13T07:02:23.767Z,7.60
2023-04-13T07:05:13.296Z,8.83
2023-04-13T07:08:03.169Z,5.63
2023-04-13T07:10:53.991Z,6.03
2023-04-13T07:13:42.595Z,2.70
2023-04-13T07:16:31.137Z,4.83
2023-04-13T07:19:23.649Z,6.57
2023-04-13T07:22:12.242Z,6.20
2023-04-13T07:25:02.408Z,5.27
2023-04-13T07:27:50.881Z,4.40
2023-04-13T07:30:44.080Z,6.50
2023-04-13T07:33:32.781Z,6.20
2023-04-13T07:36:23.577Z,4.50
2023-04-13T07:39:12.258Z,4.97
2023-04-13T07:42:02.775Z,4.80
2023-04-13T07:44:52.534Z,7.60
2023-04-13T07:47:41.457Z,5.70
2023-04-13T07:50:29.978Z,5.93
2023-04-13T07:53:18.474Z,4.87
2023-04-13T07:56:08.089Z,7.83
2023-04-13T07:58:58.444Z,4.90
2023-04-13T08:01:47.110Z,5.47
2023-04-13T08:04:36.093Z,6.33
2023-04-13T08:07:24.714Z,5.20
2023-04-13T08:10:13.271Z,9.00
2023-04-13T08:13:01.847Z,3.30
2023-04-13T08:15:51.760Z,3.40
2023-04-13T08:18:40.232Z,5.03
2023-04-13T08:21:29.775Z,8.83
2023-04-13T08:24:20.632Z,8.10
2023-04-13T08:27:10.090Z,7.60
2023-04-13T08:30:01.886Z,7.70
2023-04-13T08:32:53.735Z,9.53
2023-04-13T08:35:42.300Z,5.50
2023-04-13T08:38:30.777Z,4.70
2023-04-13T08:41:21.462Z,10.33
2023-04-13T08:44:09.971Z,6.97
2023-04-13T08:46:58.492Z,5.13
2023-04-13T08:49:49.842Z,6.13
2023-04-13T08:52:38.802Z,5.80
2023-04-13T08:55:27.457Z,7.17
2023-04-13T08:58:19.698Z,13.90
2023-04-13T09:01:08.409Z,10.83
2023-04-13T09:04:03.481Z,7.97
2023-04-13T09:06:53.733Z,9.83
2023-04-13T09:09:43.948Z,10.70
2023-04-13T09:12:33.438Z,9.63
2023-04-13T09:15:22.219Z,5.97
2023-04-13T09:18:12.552Z,9.60
2023-04-13T09:21:01.658Z,5.23
2023-04-13T09:23:58.776Z,12.20
2023-04-13T09:26:48.536Z,7.90
2023-04-13T09:29:37.145Z,6.53
2023-04-13T09:32:27.238Z,3.27
2023-04-13T09:35:15.763Z,7.07
2023-04-13T09:38:05.094Z,5.20
2023-04-13T09:40:54.942Z,7.87
2023-04-13T09:43:43.456Z,8.67
2023-04-13T09:46:32.167Z,9.00
2023-04-13T09:49:20.646Z,8.87
2023-04-13T09:52:19.629Z,8.40
2023-04-13T09:55:16.628Z,8.13
2023-04-13T09:58:13.997Z,7.03
2023-04-13T10:01:02.588Z,8.53
2023-04-13T10:03:51.247Z,6.73
2023-04-13T10:06:40.802Z,8.50
2023-04-13T10:09:29.301Z,7.23
2023-04-13T10:12:17.972Z,5.10
2023-04-13T10:15:14.060Z,9.37
2023-04-13T10:18:10.951Z,4.63
2023-04-13T10:21:00.502Z,5.10
2023-04-13T10:23:49.086Z,9.17
2023-04-13T10:26:37.924Z,6.40
2023-04-13T10:29:29.846Z,6.83
2023-04-13T10:32:24.136Z,3.50
2023-04-13T10:35:15.185Z,3.57
2023-04-13T10:38:04.026Z,4.80
2023-04-13T10:40:52.651Z,9.20
2023-04-13T10:43:41.151Z,6.07
2023-04-13T10:46:30.121Z,7.63
2023-04-13T10:49:20.011Z,6.00
2023-04-13T10:52:09.738Z,3.40
2023-04-13T10:54:58.264Z,7.30
2023-04-13T10:57:46.796Z,8.07
2023-04-13T11:00:44.783Z,4.77
2023-04-13T11:03:36.595Z,6.97
2023-04-13T11:06:27.083Z,6.13
2023-04-13T11:09:17.259Z,7.33
2023-04-13T11:12:07.478Z,4.53
2023-04-13T11:14:55.950Z,4.47
2023-04-13T11:17:44.424Z,4.20
2023-04-13T11:20:33.593Z,5.80
2023-04-13T11:23:24.376Z,3.83
2023-04-13T11:26:14.635Z,7.67
2023-04-13T11:29:03.901Z,8.57
2023-04-13T11:31:52.431Z,5.40
2023-04-13T11:34:40.920Z,4.03
2023-04-13T11:37:29.387Z,3.10
2023-04-13T11:40:22.822Z,3.47
2023-04-13T11:43:11.446Z,5.10
2023-04-13T11:46:00.397Z,4.73
2023-04-13T11:48:48.911Z,6.67
2023-04-13T11:51:38.919Z,3.07
2023-04-13T11:54:27.494Z,3.70
2023-04-13T11:57:18.097Z,3.67
2023-04-13T12:00:13.611Z,6.10
2023-04-13T12:03:11.802Z,2.60
2023-04-13T12:06:12.806Z,5.57
2023-04-13T12:09:09.296Z,4.30
2023-04-13T12:12:34.569Z,4.27
2023-04-13T12:15:25.086Z,4.23
2023-04-13T12:21:14.227Z,3.83
2023-04-13T12:24:05.792Z,8.17
2023-04-13T12:29:46.344Z,5.53
2023-04-13T12:32:41.028Z,4.87
2023-04-13T12:35:29.573Z,4.40
2023-04-13T12:38:18.079Z,5.37
2023-04-13T12:41:09.610Z,4.20
2023-04-13T12:43:58.131Z,11.53
2023-04-13T12:46:46.800Z,4.10
2023-04-13T12:49:36.668Z,4.50
2023-04-13T12:52:28.514Z,5.43
2023-04-13T12:55:17.901Z,3.03
2023-04-13T12:58:06.475Z,3.00
2023-04-13T13:00:55.154Z,2.63
2023-04-13T13:03:45.137Z,3.63
2023-04-13T13:06:35.387Z,1.90
2023-04-13T13:09:24.035Z,2.47
2023-04-13T13:12:12.755Z,2.63
2023-04-13T13:15:01.804Z,3.30
2023-04-13T13:17:50.377Z,5.90
2023-04-13T13:20:41.242Z,2.60
2023-04-13T13:23:31.233Z,3.10
2023-04-13T13:29:11.157Z,6.33
2023-04-13T13:31:59.952Z,4.90
2023-04-13T13:34:48.536Z,4.63
2023-04-13T13:37:37.040Z,5.03
2023-04-13T13:40:27.057Z,5.27
2023-04-13T13:43:17.896Z,3.57
2023-04-13T13:46:06.799Z,7.63
2023-04-13T13:48:55.413Z,6.00
2023-04-13T13:51:43.998Z,3.60
2023-04-13T13:54:32.480Z,5.50
2023-04-13T13:57:22.288Z,6.13
2023-04-13T14:00:16.934Z,3.83
2023-04-13T14:03:05.721Z,4.23
2023-04-13T14:05:54.251Z,6.50
2023-04-13T14:08:42.745Z,3.70
2023-04-13T14:11:31.342Z,5.93
2023-04-13T14:14:22.687Z,4.93
2023-04-13T14:17:11.308Z,8.40
2023-04-13T14:19:59.811Z,6.27
2023-04-13T14:22:48.263Z,4.17
2023-04-13T14:25:36.767Z,5.50
2023-04-13T14:28:25.216Z,6.20
2023-04-13T14:31:16.125Z,5.93
2023-04-13T14:34:04.660Z,5.37
2023-04-13T14:36:54.429Z,6.13
2023-04-13T14:39:42.986Z,3.77
2023-04-13T14:42:31.691Z,5.60
2023-04-13T14:45:20.311Z,3.70
2023-04-13T14:48:10.234Z,4.43
2023-04-13T14:50:58.881Z,4.10
2023-04-13T14:53:47.460Z,3.77
2023-04-13T14:56:36.688Z,5.40
2023-04-13T14:59:25.591Z,6.53
2023-04-13T15:02:14.806Z,5.30
2023-04-13T15:05:06.595Z,3.17
2023-04-13T15:07:55.700Z,3.10
2023-04-13T15:10:44.315Z,4.53
2023-04-13T15:13:32.907Z,5.30
2023-04-13T15:16:21.399Z,4.87
2023-04-13T15:19:09.961Z,4.00
2023-04-13T15:21:59.832Z,4.73
2023-04-13T15:24:48.683Z,7.70
2023-04-13T15:27:37.242Z,7.20
2023-04-13T15:30:27.226Z,5.03
2023-04-13T15:33:15.735Z,3.23
2023-04-13T15:36:04.296Z,2.20
2023-04-13T15:38:54.148Z,2.60
2023-04-13T15:41:42.643Z,3.60
2023-04-13T15:44:31.172Z,4.67
2023-04-13T15:47:19.605Z,5.00
2023-04-13T15:50:09.606Z,4.67
2023-04-13T15:52:58.111Z,7.30
2023-04-13T15:55:48.449Z,8.83
2023-04-13T15:58:36.983Z,4.10
2023-04-13T16:01:25.564Z,4.27
2023-04-13T16:04:14.425Z,4.37
2023-04-13T16:07:12.880Z,2.30
2023-04-13T16:10:02.880Z,7.00
2023-04-13T16:12:54.708Z,5.90
2023-04-13T16:15:44.449Z,5.17
2023-04-13T16:18:35.836Z,5.33
2023-04-13T16:21:24.653Z,6.47
2023-04-13T16:24:13.310Z,4.30
2023-04-13T16:27:02.143Z,3.70
2023-04-13T16:29:52.095Z,4.27
2023-04-13T16:32:42.459Z,4.73
2023-04-13T16:35:31.413Z,3.53
2023-04-13T16:38:19.959Z,3.90
2023-04-13T16:41:08.528Z,4.50
2023-04-13T16:43:58.732Z,3.73
2023-04-13T16:46:48.618Z,3.07
2023-04-13T16:49:37.096Z,4.50
2023-04-13T16:52:26.103Z,4.13
2023-04-13T16:55:15.070Z,3.83
2023-04-13T16:58:03.596Z,3.80
2023-04-13T17:00:53.546Z,3.23
2023-04-13T17:03:43.655Z,3.90
2023-04-13T17:06:32.502Z,3.97
2023-04-13T17:09:21.018Z,5.03
2023-04-13T17:12:09.508Z,3.20
2023-04-13T17:14:58.490Z,2.77
2023-04-13T17:17:47.149Z,5.33
2023-04-13T17:20:37.239Z,4.97
2023-04-13T17:23:25.730Z,4.70
2023-04-13T17:26:14.311Z,3.83
2023-04-13T17:29:02.797Z,5.40
2023-04-13T17:31:51.726Z,4.23
2023-04-13T17:34:40.241Z,5.90
2023-04-13T17:37:30.387Z,2.97
2023-04-13T17:40:20.452Z,3.43
2023-04-13T17:43:09.519Z,2.80
2023-04-13T17:45:58.198Z,3.00
2023-04-13T17:48:46.720Z,6.57
2023-04-13T17:51:35.294Z,4.90
2023-04-13T17:54:26.213Z,4.77
2023-04-13T17:57:14.722Z,6.73
2023-04-13T18:00:03.366Z,4.80
2023-04-13T18:02:52.033Z,4.27
2023-04-13T18:05:44.349Z,3.63
2023-04-13T18:08:33.248Z,3.33
2023-04-13T18:11:23.089Z,5.00
2023-04-13T18:14:12.311Z,3.83
2023-04-13T18:17:01.035Z,4.13
2023-04-13T18:19:52.837Z,6.13
2023-04-13T18:22:41.276Z,5.67
2023-04-13T18:25:29.694Z,3.93
2023-04-13T18:28:19.646Z,3.90
2023-04-13T18:31:09.233Z,5.40
2023-04-13T18:33:58.375Z,3.90
2023-04-13T18:36:47.347Z,5.93
2023-04-13T18:39:35.931Z,3.37
2023-04-13T18:42:24.414Z,7.20
2023-04-13T18:45:14.266Z,3.97
2023-04-13T18:48:03.257Z,6.67
2023-04-13T18:50:51.937Z,3.07
2023-04-13T18:53:40.568Z,5.57
2023-04-13T18:56:29.036Z,2.60
2023-04-13T18:59:17.531Z,3.03
2023-04-13T19:02:07.494Z,3.17
2023-04-13T19:04:56.106Z,7.97
2023-04-13T19:07:49.612Z,5.60
2023-04-13T19:10:38.110Z,3.50
2023-04-13T19:13:26.582Z,4.03
2023-04-13T19:16:15.396Z,8.23
2023-04-13T19:19:05.573Z,7.00
2023-04-13T19:21:54.234Z,6.53
2023-04-13T19:24:42.725Z,5.43
2023-04-13T19:27:31.685Z,6.33
2023-04-13T19:30:20.257Z,6.53
2023-04-13T19:33:08.741Z,5.53
2023-04-13T19:35:58.593Z,3.90
2023-04-13T19:38:47.110Z,6.80
2023-04-13T19:41:36.863Z,5.80
2023-04-13T19:44:26.017Z,8.40
2023-04-13T19:47:14.544Z,8.33
2023-04-13T19:50:03.016Z,5.90
2023-04-13T19:52:53.085Z,5.10
2023-04-13T19:55:41.593Z,4.83
2023-04-13T19:58:30.017Z,8.43
2023-04-13T20:01:18.638Z,5.40
2023-04-13T20:04:12.991Z,3.47
2023-04-13T20:07:01.639Z,4.67
2023-04-13T20:09:51.636Z,4.57
2023-04-13T20:12:40.324Z,5.53
2023-04-13T20:15:30.923Z,6.00
2023-04-13T20:18:19.622Z,6.73
2023-04-13T20:21:08.167Z,6.17
2023-04-13T20:23:56.833Z,5.83
2023-04-13T20:26:47.094Z,10.43
2023-04-13T20:29:35.667Z,7.43
2023-04-13T20:32:24.184Z,6.30
2023-04-13T20:35:12.749Z,5.13
2023-04-13T20:38:01.234Z,7.53
2023-04-13T20:40:49.849Z,5.83
2023-04-13T20:43:40.956Z,4.83
2023-04-13T20:46:34.210Z,10.33
2023-04-13T20:49:24.158Z,4.83
2023-04-13T20:52:14.096Z,6.93
2023-04-13T20:55:02.636Z,7.00
2023-04-13T20:57:51.700Z,5.00
2023-04-13T21:00:43.527Z,8.17
2023-04-13T21:03:32.446Z,10.60
2023-04-13T21:06:22.815Z,16.23
2023-04-13T21:09:11.469Z,8.43
2023-04-13T21:11:59.896Z,11.67
2023-04-13T21:14:48.335Z,11.40
2023-04-13T21:17:38.402Z,9.03
2023-04-13T21:20:26.857Z,7.60
2023-04-13T21:23:15.282Z,7.57
2023-04-13T21:26:03.847Z,6.60
2023-04-13T21:28:52.641Z,6.40
2023-04-13T21:31:41.295Z,6.63
2023-04-13T21:34:32.278Z,6.00
2023-04-13T21:37:20.780Z,6.23
2023-04-13T21:40:12.533Z,9.80
2023-04-13T21:43:01.035Z,8.10
2023-04-13T21:45:50.255Z,6.20
2023-04-13T21:48:38.931Z,7.00
2023-04-13T21:51:28.773Z,7.27
2023-04-13T21:54:17.264Z,8.30
2023-04-13T21:57:05.828Z,7.23
2023-04-13T21:59:54.452Z,6.33
2023-04-13T22:02:43.104Z,7.90
2023-04-13T22:05:31.700Z,12.67
2023-04-13T22:08:21.654Z,7.50
2023-04-13T22:11:10.713Z,8.40
2023-04-13T22:14:00.224Z,7.27
2023-04-13T22:16:48.946Z,9.40
2023-04-13T22:19:37.493Z,7.33
2023-04-13T22:22:26.938Z,5.97
2023-04-13T22:25:16.781Z,6.87
2023-04-13T22:28:05.454Z,6.90
2023-04-13T22:30:54.061Z,6.30
2023-04-13T22:33:42.662Z,11.50
2023-04-13T22:36:31.116Z,9.60
2023-04-13T22:39:19.588Z,7.20
2023-04-13T22:42:09.425Z,8.30
2023-04-13T22:44:57.973Z,9.70
2023-04-13T22:47:46.514Z,7.80
2023-04-13T22:50:37.196Z,7.67
2023-04-13T22:53:25.956Z,7.23
2023-04-13T22:56:14.504Z,8.17
2023-04-13T22:59:04.288Z,7.83
2023-04-13T23:01:52.932Z,8.10
2023-04-13T23:04:41.586Z,9.77
2023-04-13T23:07:30.268Z,13.00
2023-04-13T23:10:19.003Z,8.50
2023-04-13T23:13:07.582Z,8.10
2023-04-13T23:16:01.655Z,10.27
2023-04-13T23:18:50.312Z,10.80
2023-04-13T23:21:38.795Z,9.03
2023-04-13T23:24:28.367Z,15.50
2023-04-13T23:27:16.950Z,12.33
2023-04-13T23:30:06.497Z,9.70
2023-04-13T23:32:56.516Z,9.80
2023-04-13T23:35:52.570Z,12.90
2023-04-13T23:38:41.091Z,14.93
2023-04-13T23:41:29.553Z,12.47
2023-04-13T23:44:18.050Z,14.70
2023-04-13T23:47:07.056Z,10.50
2023-04-13T23:49:56.993Z,7.27
2023-04-13T23:52:45.654Z,8.53
2023-04-13T23:55:34.171Z,13.57
2023-04-13T23:58:22.701Z,7.73
